Time;durP1;ratioP1;P1;durP2;ratioP2;P2;SDS_P1;SDS_P2;PMS_P1;PMS_P2;Temp;Humidity;BMP_temperature;BMP_pressure;BME280_temperature;BME280_humidity;BME280_pressure;Samples;Min_cycle;Max_cycle;Signal;HPM_P1;HPM_P2
2023/09/28 00:02:22;;;;;;;32.85;6.38;;;17.10;99.90;;;;;;5034063;28;20077;-53
2023/09/28 00:04:49;;;;;;;29.73;7.03;;;17.20;99.90;;;;;;5034033;28;20042;-51
2023/09/28 00:07:16;;;;;;;30.83;5.63;;;17.20;99.90;;;;;;5033816;28;20073;-54
2023/09/28 00:09:43;;;;;;;26.13;5.50;;;17.20;99.90;;;;;;5034186;28;20041;-53
2023/09/28 00:12:09;;;;;;;24.48;5.65;;;17.10;99.90;;;;;;5033948;28;20049;-52
2023/09/28 00:14:36;;;;;;;22.88;5.78;;;17.10;99.90;;;;;;5033763;28;20041;-47
2023/09/28 00:17:03;;;;;;;29.55;6.07;;;17.00;99.90;;;;;;5033522;28;20041;-51
2023/09/28 00:19:30;;;;;;;30.23;5.82;;;17.00;99.90;;;;;;5032786;28;20091;-52
2023/09/28 00:21:57;;;;;;;28.55;6.07;;;16.90;99.90;;;;;;5033981;28;20120;-50
2023/09/28 00:24:24;;;;;;;24.63;5.82;;;16.80;99.90;;;;;;5033976;28;20388;-50
2023/09/28 00:26:51;;;;;;;27.85;5.38;;;16.80;99.90;;;;;;5033608;28;20037;-51
2023/09/28 00:29:18;;;;;;;28.75;6.35;;;16.80;99.90;;;;;;5033850;28;20041;-52
2023/09/28 00:31:45;;;;;;;27.58;6.68;;;16.70;99.90;;;;;;5032414;28;20068;-55
2023/09/28 00:34:12;;;;;;;30.17;6.50;;;16.60;99.90;;;;;;5033591;28;20033;-51
2023/09/28 00:36:39;;;;;;;25.73;5.65;;;16.60;99.90;;;;;;5033500;28;20377;-51
2023/09/28 00:39:05;;;;;;;26.73;5.93;;;16.60;99.90;;;;;;5032639;28;20476;-50
2023/09/28 00:41:32;;;;;;;27.85;5.53;;;16.50;99.90;;;;;;5032024;28;20080;-53
2023/09/28 00:44:00;;;;;;;33.83;5.60;;;16.50;99.90;;;;;;5033381;28;20103;-50
2023/09/28 00:46:27;;;;;;;30.90;5.40;;;16.40;99.90;;;;;;5031676;28;20053;-53
2023/09/28 00:48:54;;;;;;;27.80;6.15;;;16.40;99.90;;;;;;5033284;28;20484;-51
2023/09/28 00:51:20;;;;;;;27.95;5.43;;;16.40;99.90;;;;;;5033328;28;20049;-54
2023/09/28 00:53:47;;;;;;;32.13;6.22;;;16.40;99.90;;;;;;5032092;28;20488;-54
2023/09/28 00:56:14;;;;;;;27.20;5.25;;;16.30;99.90;;;;;;5033290;28;20047;-52
2023/09/28 00:58:41;;;;;;;30.33;5.88;;;16.30;99.90;;;;;;5033681;28;20377;-48
2023/09/28 01:01:10;;;;;;;24.52;5.40;;;16.30;99.90;;;;;;5033382;28;20041;-51
2023/09/28 01:03:37;;;;;;;28.80;5.60;;;16.30;99.90;;;;;;5033247;28;20141;-49
2023/09/28 01:06:07;;;;;;;26.65;6.18;;;16.30;99.90;;;;;;5033214;28;20152;-55
2023/09/28 01:08:34;;;;;;;27.27;5.43;;;16.20;99.90;;;;;;5031979;28;20057;-51
2023/09/28 01:11:05;;;;;;;22.38;5.07;;;16.20;99.90;;;;;;5033264;28;20049;-51
2023/09/28 01:13:31;;;;;;;32.25;5.80;;;16.20;99.90;;;;;;5033273;28;20033;-50
2023/09/28 01:15:58;;;;;;;25.48;5.75;;;16.20;99.90;;;;;;5032976;28;20049;-51
2023/09/28 01:18:25;;;;;;;24.88;5.28;;;16.20;99.90;;;;;;5033133;28;20076;-51
2023/09/28 01:20:52;;;;;;;25.10;5.13;;;16.20;99.90;;;;;;5033184;28;20049;-49
2023/09/28 01:23:19;;;;;;;31.70;6.18;;;16.20;99.90;;;;;;5033662;28;20125;-55
2023/09/28 01:25:47;;;;;;;25.52;5.07;;;16.20;99.90;;;;;;5033193;28;20052;-50
2023/09/28 01:28:16;;;;;;;23.98;5.00;;;16.20;99.90;;;;;;5033806;28;20551;-50
2023/09/28 01:30:44;;;;;;;23.52;5.10;;;16.30;99.90;;;;;;5036909;28;20477;-52
2023/09/28 01:33:11;;;;;;;24.55;5.40;;;16.30;99.90;;;;;;5036774;28;20084;-49
2023/09/28 01:35:38;;;;;;;29.50;5.60;;;16.40;99.90;;;;;;5035367;28;20041;-48
2023/09/28 01:38:05;;;;;;;25.42;5.38;;;16.40;99.90;;;;;;5035602;28;20137;-50
2023/09/28 01:40:32;;;;;;;28.17;5.50;;;16.30;99.90;;;;;;5036777;28;20034;-54
2023/09/28 01:42:58;;;;;;;25.52;6.05;;;16.30;99.90;;;;;;5036566;28;20056;-53
2023/09/28 01:45:25;;;;;;;23.40;5.60;;;16.20;99.90;;;;;;5036489;28;20392;-54
2023/09/28 01:47:52;;;;;;;28.05;5.35;;;16.20;99.90;;;;;;5035104;28;20041;-54
2023/09/28 01:50:19;;;;;;;25.63;5.22;;;16.20;99.90;;;;;;5036214;28;20496;-47
2023/09/28 01:52:46;;;;;;;23.20;5.32;;;16.20;99.90;;;;;;5035771;28;20099;-50
2023/09/28 01:55:13;;;;;;;21.85;4.47;;;16.10;99.90;;;;;;5035305;28;20064;-49
2023/09/28 01:57:41;;;;;;;24.27;5.18;;;16.10;99.90;;;;;;5035328;28;20063;-54
2023/09/28 02:00:18;;;;;;;26.20;4.90;;;16.10;99.90;;;;;;5035173;28;20049;-53
2023/09/28 02:02:45;;;;;;;19.95;4.20;;;16.10;99.90;;;;;;5035020;28;20099;-49
2023/09/28 02:05:12;;;;;;;22.63;5.32;;;16.10;99.90;;;;;;5036428;28;20050;-54
2023/09/28 02:07:39;;;;;;;22.60;4.63;;;16.20;99.90;;;;;;5036503;28;20045;-47
2023/09/28 02:10:07;;;;;;;19.98;4.43;;;16.30;99.90;;;;;;5035266;28;20048;-52
2023/09/28 02:12:34;;;;;;;23.08;4.95;;;16.30;99.90;;;;;;5034969;28;20451;-50
2023/09/28 02:15:04;;;;;;;23.40;4.78;;;16.40;99.90;;;;;;5036345;28;20065;-49
2023/09/28 02:17:31;;;;;;;24.17;5.20;;;16.40;99.90;;;;;;5035907;28;20045;-55
2023/09/28 02:19:58;;;;;;;26.02;5.05;;;16.40;99.90;;;;;;5034755;28;20045;-54
2023/09/28 02:22:26;;;;;;;27.30;4.93;;;16.40;99.90;;;;;;5034121;28;20049;-54
2023/09/28 02:24:52;;;;;;;22.75;4.07;;;16.50;99.90;;;;;;5035962;28;20041;-53
2023/09/28 02:27:21;;;;;;;22.85;5.00;;;16.50;99.90;;;;;;5035703;28;20041;-53
2023/09/28 02:29:48;;;;;;;23.83;4.72;;;16.50;99.90;;;;;;5036312;28;20449;-55
2023/09/28 02:32:15;;;;;;;20.33;4.38;;;16.50;99.90;;;;;;5035994;28;20465;-54
2023/09/28 02:34:42;;;;;;;27.38;4.97;;;16.60;99.90;;;;;;5035618;28;20510;-51
2023/09/28 02:37:09;;;;;;;21.08;4.93;;;16.60;99.90;;;;;;5035468;28;20041;-55
2023/09/28 02:39:36;;;;;;;24.23;5.00;;;16.60;99.90;;;;;;5035169;28;20052;-50
2023/09/28 02:42:07;;;;;;;23.02;5.15;;;16.60;99.90;;;;;;5035172;28;20041;-53
2023/09/28 02:44:34;;;;;;;22.00;5.95;;;16.60;99.90;;;;;;5035342;28;20041;-54
2023/09/28 02:47:05;;;;;;;22.10;5.22;;;16.70;99.90;;;;;;5034317;28;20041;-52
2023/09/28 02:49:32;;;;;;;18.58;4.15;;;16.70;99.90;;;;;;5034154;28;20046;-54
2023/09/28 02:51:59;;;;;;;18.65;4.30;;;16.70;99.90;;;;;;5035432;28;20049;-53
2023/09/28 02:54:26;;;;;;;22.38;4.15;;;16.70;99.90;;;;;;5035521;28;20049;-51
2023/09/28 02:56:53;;;;;;;24.73;5.00;;;16.70;99.90;;;;;;5034310;28;20037;-49
2023/09/28 02:59:26;;;;;;;25.45;4.40;;;16.70;99.90;;;;;;5035689;28;20049;-51
2023/09/28 03:01:53;;;;;;;23.65;5.07;;;16.80;99.90;;;;;;5035299;28;20048;-56
2023/09/28 03:04:20;;;;;;;23.10;4.32;;;16.70;99.90;;;;;;5034915;28;20129;-51
2023/09/28 03:06:48;;;;;;;19.05;4.43;;;16.70;99.90;;;;;;5033636;28;20045;-53
2023/09/28 03:09:17;;;;;;;20.10;3.92;;;16.70;99.90;;;;;;5034943;28;20040;-50
2023/09/28 03:11:44;;;;;;;22.25;4.93;;;16.60;99.90;;;;;;5035258;28;20071;-53
2023/09/28 03:14:11;;;;;;;16.95;4.28;;;16.50;99.90;;;;;;5035575;28;20044;-51
2023/09/28 03:16:39;;;;;;;20.85;3.88;;;16.50;99.90;;;;;;5034917;28;20080;-52
2023/09/28 03:19:07;;;;;;;18.48;4.43;;;16.40;99.90;;;;;;5035276;28;20108;-52
2023/09/28 03:21:35;;;;;;;19.58;4.80;;;16.40;99.90;;;;;;5035359;28;20052;-50
2023/09/28 03:24:02;;;;;;;18.58;5.07;;;16.30;99.90;;;;;;5034966;28;20052;-54
2023/09/28 03:26:30;;;;;;;20.05;4.43;;;16.20;99.90;;;;;;5034844;28;20068;-50
2023/09/28 03:28:57;;;;;;;23.42;4.80;;;16.20;99.90;;;;;;5033723;28;20552;-51
2023/09/28 03:31:27;;;;;;;20.35;4.13;;;16.10;99.90;;;;;;5034379;28;20045;-52
2023/09/28 03:33:54;;;;;;;15.30;4.10;;;16.10;99.90;;;;;;5034867;28;20041;-52
2023/09/28 03:36:21;;;;;;;20.55;4.43;;;16.10;99.90;;;;;;5034518;28;20469;-55
2023/09/28 03:38:48;;;;;;;16.50;3.72;;;16.10;99.90;;;;;;5034551;28;20075;-49
2023/09/28 03:41:15;;;;;;;15.95;3.85;;;16.00;99.90;;;;;;5034969;28;20389;-52
2023/09/28 03:43:42;;;;;;;19.60;3.97;;;16.00;99.90;;;;;;5034642;28;20120;-52
2023/09/28 03:46:09;;;;;;;15.15;3.85;;;16.00;99.90;;;;;;5034322;28;20038;-49
2023/09/28 03:48:36;;;;;;;16.98;4.32;;;16.00;99.90;;;;;;5034556;28;20049;-48
2023/09/28 03:51:03;;;;;;;20.25;4.78;;;16.00;99.90;;;;;;5034270;28;20485;-55
2023/09/28 03:53:30;;;;;;;18.02;3.85;;;16.00;99.90;;;;;;5033813;28;20161;-53
2023/09/28 03:55:58;;;;;;;18.38;3.58;;;16.10;99.90;;;;;;5034430;28;20076;-54
2023/09/28 03:58:25;;;;;;;19.80;3.83;;;16.10;99.90;;;;;;5033054;28;20048;-52
2023/09/28 04:00:52;;;;;;;15.82;4.00;;;16.10;99.90;;;;;;5032999;28;20128;-52
2023/09/28 04:03:19;;;;;;;16.98;3.90;;;16.10;99.90;;;;;;5034430;28;20445;-50
2023/09/28 04:05:46;;;;;;;21.38;4.00;;;16.10;99.90;;;;;;5033788;28;20049;-52
2023/09/28 04:08:13;;;;;;;15.80;3.92;;;16.10;99.90;;;;;;5033613;28;20087;-52
2023/09/28 04:10:39;;;;;;;19.42;3.90;;;16.20;99.90;;;;;;5033554;28;20120;-50
2023/09/28 04:13:06;;;;;;;17.95;3.95;;;16.20;99.90;;;;;;5033543;28;20072;-51
2023/09/28 04:15:33;;;;;;;18.65;4.13;;;16.20;99.90;;;;;;5033768;28;20074;-50
2023/09/28 04:18:00;;;;;;;21.20;4.40;;;16.20;99.90;;;;;;5033631;28;20455;-50
2023/09/28 04:20:27;;;;;;;17.60;4.72;;;16.20;99.90;;;;;;5033697;28;20068;-52
2023/09/28 04:22:54;;;;;;;20.92;4.55;;;16.20;99.90;;;;;;5033758;28;20047;-52
2023/09/28 04:25:21;;;;;;;18.73;4.28;;;16.20;99.90;;;;;;5034280;28;20077;-47
2023/09/28 04:27:49;;;;;;;21.50;4.30;;;16.20;99.90;;;;;;5033201;28;20053;-51
2023/09/28 04:30:16;;;;;;;21.45;5.13;;;16.30;99.90;;;;;;5033897;28;20469;-49
2023/09/28 04:32:46;;;;;;;19.13;4.10;;;16.20;99.90;;;;;;5033838;28;20033;-50
2023/09/28 04:35:13;;;;;;;20.05;4.10;;;16.20;99.90;;;;;;5033745;28;20477;-52
2023/09/28 04:37:41;;;;;;;21.40;4.10;;;16.30;99.90;;;;;;5033200;28;20444;-51
2023/09/28 04:40:13;;;;;;;19.50;3.88;;;16.20;99.90;;;;;;5033506;28;20056;-53
2023/09/28 04:42:40;;;;;;;17.83;4.10;;;16.20;99.90;;;;;;5033216;28;20125;-51
2023/09/28 04:45:06;;;;;;;15.45;3.63;;;16.20;99.90;;;;;;5033314;28;20071;-49
2023/09/28 04:47:33;;;;;;;18.85;3.88;;;16.20;99.90;;;;;;5033083;28;20112;-51
2023/09/28 04:50:00;;;;;;;17.05;3.50;;;16.20;99.90;;;;;;5033149;28;20038;-54
2023/09/28 04:52:27;;;;;;;17.55;4.25;;;16.20;99.90;;;;;;5033399;28;20342;-52
2023/09/28 04:54:54;;;;;;;19.23;4.20;;;16.20;99.90;;;;;;5033467;28;20037;-53
2023/09/28 04:57:21;;;;;;;16.70;3.60;;;16.20;99.90;;;;;;5032900;28;20037;-51
2023/09/28 04:59:48;;;;;;;13.77;3.35;;;16.20;99.90;;;;;;5033711;28;20124;-48
2023/09/28 05:02:15;;;;;;;16.27;3.28;;;16.10;99.90;;;;;;5032862;28;20049;-55
2023/09/28 05:04:41;;;;;;;12.00;3.15;;;16.20;99.90;;;;;;5039093;28;20065;-52
2023/09/28 05:07:08;;;;;;;12.23;3.08;;;16.10;99.90;;;;;;5039597;28;20128;-54
2023/09/28 05:09:35;;;;;;;13.70;3.03;;;16.10;99.90;;;;;;5039592;28;20037;-51
2023/09/28 05:12:02;;;;;;;13.00;2.88;;;16.10;99.90;;;;;;5039877;28;20038;-49
2023/09/28 05:14:31;;;;;;;13.85;2.75;;;16.10;99.90;;;;;;5039957;28;20087;-48
2023/09/28 05:16:58;;;;;;;17.38;3.00;;;16.10;99.90;;;;;;5039406;28;20045;-54
2023/09/28 05:19:25;;;;;;;15.93;3.05;;;16.00;99.90;;;;;;5040010;28;20416;-47
2023/09/28 05:21:52;;;;;;;13.50;3.15;;;16.10;99.90;;;;;;5039883;28;20048;-48
2023/09/28 05:24:19;;;;;;;15.48;3.00;;;16.10;99.90;;;;;;5039488;28;20484;-53
2023/09/28 05:26:46;;;;;;;16.17;3.53;;;16.10;99.90;;;;;;5039273;28;20049;-50
2023/09/28 05:29:13;;;;;;;15.23;2.92;;;16.10;99.90;;;;;;5038209;28;20045;-48
2023/09/28 05:31:40;;;;;;;12.45;2.60;;;16.10;99.90;;;;;;5039311;28;20049;-50
2023/09/28 05:34:07;;;;;;;14.38;3.10;;;16.00;99.90;;;;;;5039490;28;20116;-52
2023/09/28 05:36:35;;;;;;;13.52;2.65;;;16.10;99.90;;;;;;5039749;28;20119;-51
2023/09/28 05:39:03;;;;;;;13.05;2.70;;;16.10;99.90;;;;;;5037966;28;20041;-47
2023/09/28 05:41:30;;;;;;;11.52;2.80;;;16.00;99.90;;;;;;5039162;28;20110;-52
2023/09/28 05:43:57;;;;;;;16.20;3.00;;;16.00;99.90;;;;;;5039440;28;20072;-52
2023/09/28 05:46:24;;;;;;;14.30;3.20;;;16.10;99.90;;;;;;5039566;28;20099;-50
2023/09/28 05:48:51;;;;;;;13.82;3.75;;;16.10;99.90;;;;;;5039511;28;20042;-54
2023/09/28 05:51:18;;;;;;;12.45;3.10;;;16.10;99.90;;;;;;5039107;28;20052;-53
2023/09/28 05:53:44;;;;;;;14.23;3.30;;;16.10;99.90;;;;;;5039509;28;20048;-52
2023/09/28 05:56:14;;;;;;;13.80;2.97;;;16.10;99.90;;;;;;5039416;28;20045;-50
2023/09/28 05:58:41;;;;;;;16.13;3.28;;;16.10;99.90;;;;;;5039607;28;20046;-51
2023/09/28 06:01:08;;;;;;;14.52;3.05;;;16.10;99.90;;;;;;5039015;28;20535;-52
2023/09/28 06:03:37;;;;;;;13.35;3.25;;;16.10;99.90;;;;;;5039407;28;20555;-53
2023/09/28 06:06:04;;;;;;;17.27;3.22;;;16.10;99.90;;;;;;5039205;28;20083;-54
2023/09/28 06:08:31;;;;;;;12.25;3.13;;;16.10;99.90;;;;;;5039104;28;20034;-50
2023/09/28 06:10:58;;;;;;;16.27;3.20;;;16.10;99.90;;;;;;5039191;28;20095;-51
2023/09/28 06:13:38;;;;;;;12.80;3.05;;;16.10;99.90;;;;;;5038964;28;20045;-54
2023/09/28 06:16:18;;;;;;;15.65;3.28;;;16.10;99.90;;;;;;5035091;28;20041;-50
2023/09/28 06:18:46;;;;;;;12.40;2.92;;;16.10;99.90;;;;;;5036221;28;20095;-51
2023/09/28 06:21:12;;;;;;;11.15;2.65;;;16.10;99.90;;;;;;5035855;28;20057;-49
2023/09/28 06:23:40;;;;;;;12.95;2.88;;;16.10;99.90;;;;;;5035701;28;20037;-52
2023/09/28 06:26:07;;;;;;;10.98;2.63;;;16.10;99.90;;;;;;5035790;28;20052;-52
2023/09/28 06:28:33;;;;;;;14.57;3.10;;;16.10;99.90;;;;;;5035778;28;20052;-53
2023/09/28 06:31:01;;;;;;;10.18;2.58;;;16.10;99.90;;;;;;5035535;28;20374;-52
2023/09/28 06:33:28;;;;;;;14.20;3.30;;;16.10;99.90;;;;;;5035833;28;20065;-54
2023/09/28 06:35:56;;;;;;;11.07;2.70;;;16.10;99.90;;;;;;5035953;28;20145;-50
2023/09/28 06:38:23;;;;;;;11.15;2.67;;;16.10;99.90;;;;;;5035643;28;20041;-52
2023/09/28 06:40:50;;;;;;;10.82;3.20;;;16.10;99.90;;;;;;5035646;28;20123;-52
2023/09/28 06:43:16;;;;;;;11.77;3.22;;;16.10;99.90;;;;;;5035834;28;20049;-50
2023/09/28 06:45:43;;;;;;;14.38;2.80;;;16.10;99.90;;;;;;5035118;28;20045;-48
2023/09/28 06:48:10;;;;;;;10.85;2.67;;;16.10;99.90;;;;;;5034883;28;20119;-53
2023/09/28 06:50:46;;;;;;;13.40;2.78;;;16.20;99.90;;;;;;5035312;28;20085;-47
2023/09/28 06:53:15;;;;;;;14.05;3.25;;;16.10;99.90;;;;;;5035061;28;20041;-50
2023/09/28 06:55:43;;;;;;;13.07;2.80;;;16.10;99.90;;;;;;5035457;28;20484;-50
2023/09/28 06:58:13;;;;;;;14.73;3.30;;;16.10;99.90;;;;;;5035396;28;20065;-53
2023/09/28 07:00:40;;;;;;;12.52;2.70;;;16.10;99.90;;;;;;5035457;28;20053;-55
2023/09/28 07:03:06;;;;;;;9.52;2.70;;;16.10;99.90;;;;;;5035299;28;20045;-51
2023/09/28 07:05:33;;;;;;;8.43;2.90;;;16.00;99.90;;;;;;5034001;28;20041;-49
2023/09/28 07:08:00;;;;;;;14.57;2.88;;;16.00;99.90;;;;;;5035210;28;20456;-53
2023/09/28 07:10:27;;;;;;;13.05;3.00;;;16.00;99.90;;;;;;5035118;28;20044;-50
2023/09/28 07:12:59;;;;;;;13.15;2.75;;;16.00;99.90;;;;;;5046324;28;20046;-49
2023/09/28 07:15:26;;;;;;;10.55;3.10;;;16.00;99.90;;;;;;5034997;28;20319;-48
2023/09/28 07:17:53;;;;;;;11.88;2.90;;;16.00;99.90;;;;;;5034711;28;20464;-51
2023/09/28 07:20:20;;;;;;;14.23;3.90;;;16.00;99.90;;;;;;5034674;28;20051;-53
2023/09/28 07:22:48;;;;;;;14.57;3.13;;;16.00;99.90;;;;;;5035145;28;20523;-52
2023/09/28 07:25:15;;;;;;;15.95;3.40;;;16.00;99.90;;;;;;5035003;28;20149;-52
2023/09/28 07:27:45;;;;;;;14.23;3.10;;;16.00;99.90;;;;;;5034787;28;20112;-52
2023/09/28 07:30:12;;;;;;;11.15;2.85;;;16.10;99.90;;;;;;5035066;28;20050;-51
2023/09/28 07:32:39;;;;;;;12.30;2.85;;;16.00;99.90;;;;;;5034998;28;20048;-52
2023/09/28 07:35:09;;;;;;;11.20;2.92;;;16.00;99.90;;;;;;5034801;28;20104;-49
2023/09/28 07:37:36;;;;;;;9.32;2.65;;;16.00;99.90;;;;;;5034655;28;20046;-50
2023/09/28 07:40:04;;;;;;;10.93;2.83;;;16.00;99.90;;;;;;5034704;28;20045;-51
2023/09/28 07:42:31;;;;;;;11.20;2.60;;;16.00;99.90;;;;;;5033115;28;20053;-53
2023/09/28 07:44:58;;;;;;;12.35;2.67;;;16.00;99.90;;;;;;5033273;28;20495;-50
2023/09/28 07:47:24;;;;;;;11.63;2.90;;;16.00;99.90;;;;;;5034579;28;20061;-50
2023/09/28 07:49:54;;;;;;;13.20;3.08;;;16.00;99.90;;;;;;5034276;28;20052;-52
2023/09/28 07:52:21;;;;;;;11.52;3.03;;;16.00;99.90;;;;;;5034682;28;20473;-53
2023/09/28 07:54:48;;;;;;;13.57;3.30;;;16.10;99.90;;;;;;5016172;28;20374;-49
2023/09/28 07:57:15;;;;;;;12.13;3.25;;;16.10;99.90;;;;;;5034127;28;20038;-51
2023/09/28 07:59:42;;;;;;;13.35;3.83;;;16.10;99.90;;;;;;5034007;28;20378;-54
2023/09/28 08:02:11;;;;;;;14.23;3.97;;;16.10;99.90;;;;;;5034084;28;20460;-53
2023/09/28 08:04:38;;;;;;;12.77;3.47;;;16.10;99.90;;;;;;5033823;28;20037;-50
2023/09/28 08:07:05;;;;;;;14.63;3.42;;;16.10;99.90;;;;;;5033983;28;20041;-51
2023/09/28 08:09:32;;;;;;;12.93;3.40;;;16.10;99.90;;;;;;5033745;28;20431;-51
2023/09/28 08:11:59;;;;;;;12.25;4.10;;;16.10;99.90;;;;;;5033649;28;20041;-49
2023/09/28 08:14:29;;;;;;;15.48;4.15;;;16.10;99.90;;;;;;5033745;28;20103;-47
2023/09/28 08:16:56;;;;;;;15.20;3.35;;;16.10;99.90;;;;;;5033649;28;20042;-47
2023/09/28 08:19:24;;;;;;;14.35;3.72;;;16.10;99.90;;;;;;5033979;28;20496;-54
2023/09/28 08:21:50;;;;;;;16.23;3.63;;;16.20;99.90;;;;;;5032590;28;20049;-52
2023/09/28 08:24:17;;;;;;;16.40;3.40;;;16.20;99.90;;;;;;5032960;28;20045;-51
2023/09/28 08:26:47;;;;;;;15.20;4.20;;;16.20;99.90;;;;;;5033213;28;20045;-50
2023/09/28 08:29:15;;;;;;;15.43;3.47;;;16.30;99.90;;;;;;5033232;28;20133;-51
2023/09/28 08:31:42;;;;;;;13.80;3.20;;;16.30;99.90;;;;;;5033727;28;20100;-52
2023/09/28 08:34:09;;;;;;;16.33;3.97;;;16.30;99.90;;;;;;5033106;28;20099;-49
2023/09/28 08:36:39;;;;;;;14.15;3.47;;;16.40;99.90;;;;;;5032219;28;20126;-50
2023/09/28 08:39:06;;;;;;;15.40;3.50;;;16.50;99.90;;;;;;5032717;28;20174;-50
2023/09/28 08:41:33;;;;;;;17.60;3.65;;;16.50;99.90;;;;;;5033139;28;20079;-50
2023/09/28 08:43:59;;;;;;;14.60;3.30;;;16.60;99.90;;;;;;5031875;28;20499;-54
2023/09/28 08:46:27;;;;;;;16.80;4.00;;;16.70;99.90;;;;;;5032208;28;20053;-52
2023/09/28 08:49:14;;;;;;;13.70;3.38;;;16.80;99.90;;;;;;5031999;28;20033;-49
2023/09/28 08:51:41;;;;;;;15.02;3.42;;;16.80;99.90;;;;;;5031964;28;20053;-53
2023/09/28 08:54:08;;;;;;;12.93;3.05;;;16.90;99.90;;;;;;5032724;28;20095;-50
2023/09/28 08:56:34;;;;;;;16.50;3.75;;;16.90;99.90;;;;;;5032894;28;20564;-53
2023/09/28 08:59:02;;;;;;;15.63;3.60;;;17.00;99.90;;;;;;5032263;28;20120;-50
2023/09/28 09:01:29;;;;;;;15.57;3.92;;;17.00;99.90;;;;;;5033243;28;20067;-50
2023/09/28 09:03:57;;;;;;;11.68;3.50;;;17.00;99.90;;;;;;5033263;28;20052;-50
2023/09/28 09:06:24;;;;;;;16.60;3.45;;;17.10;99.90;;;;;;5032165;28;20045;-50
2023/09/28 09:08:51;;;;;;;16.95;4.25;;;17.00;99.90;;;;;;5032541;28;20041;-50
2023/09/28 09:11:18;;;;;;;15.43;3.55;;;17.00;99.90;;;;;;5032477;28;20473;-52
2023/09/28 09:13:44;;;;;;;13.55;3.83;;;17.00;99.90;;;;;;5031826;28;20038;-47
2023/09/28 09:16:12;;;;;;;12.77;3.63;;;17.10;99.90;;;;;;5033000;28;20069;-54
2023/09/28 09:18:39;;;;;;;19.60;3.72;;;17.20;99.90;;;;;;5032896;28;20041;-48
2023/09/28 09:21:07;;;;;;;14.30;3.83;;;17.20;99.90;;;;;;5032957;28;20409;-52
2023/09/28 09:23:34;;;;;;;14.50;4.00;;;17.30;99.90;;;;;;5033012;28;20046;-50
2023/09/28 09:26:02;;;;;;;18.88;4.07;;;17.40;99.90;;;;;;5032937;28;20099;-54
2023/09/28 09:28:29;;;;;;;13.50;3.17;;;17.50;99.90;;;;;;5032871;28;20501;-50
2023/09/28 09:30:56;;;;;;;18.55;4.28;;;17.70;99.90;;;;;;5032975;28;20473;-49
2023/09/28 09:33:23;;;;;;;13.77;3.72;;;17.70;99.90;;;;;;5031556;28;20133;-50
2023/09/28 09:35:50;;;;;;;15.07;3.78;;;17.80;99.90;;;;;;5029976;28;20536;-50
2023/09/28 09:38:17;;;;;;;19.40;3.67;;;17.90;99.90;;;;;;5031315;28;20397;-49
2023/09/28 09:40:44;;;;;;;14.65;3.88;;;18.00;99.90;;;;;;5031146;28;20041;-53
2023/09/28 09:43:11;;;;;;;14.65;3.72;;;18.20;99.90;;;;;;5031618;28;20428;-55
2023/09/28 09:45:38;;;;;;;16.45;3.95;;;18.20;99.90;;;;;;5031196;28;20097;-50
2023/09/28 09:48:05;;;;;;;16.27;4.05;;;18.30;99.90;;;;;;5032444;28;20037;-50
2023/09/28 09:50:32;;;;;;;14.32;3.35;;;18.40;99.90;;;;;;5033798;28;20136;-53
2023/09/28 09:52:59;;;;;;;15.93;3.85;;;18.30;99.90;;;;;;5036385;28;20048;-50
2023/09/28 09:55:26;;;;;;;15.70;4.30;;;18.30;99.90;;;;;;5036190;28;20080;-52
2023/09/28 09:57:53;;;;;;;20.00;3.83;;;18.30;99.90;;;;;;5036441;28;20095;-52
2023/09/28 10:00:22;;;;;;;15.85;3.65;;;18.40;99.90;;;;;;5036525;28;20038;-50
2023/09/28 10:02:49;;;;;;;18.52;4.25;;;18.50;99.90;;;;;;5036272;28;20037;-48
2023/09/28 10:05:15;;;;;;;19.83;4.18;;;18.60;99.90;;;;;;5035920;28;20033;-48
2023/09/28 10:07:42;;;;;;;17.30;3.90;;;18.60;99.90;;;;;;5035818;28;20069;-47
2023/09/28 10:10:12;;;;;;;17.15;3.67;;;18.60;99.90;;;;;;5035874;28;20053;-52
2023/09/28 10:12:39;;;;;;;17.40;3.90;;;18.60;99.90;;;;;;5036436;28;20076;-52
2023/09/28 10:15:07;;;;;;;19.05;4.15;;;18.60;99.90;;;;;;5035826;28;20042;-57
2023/09/28 10:17:33;;;;;;;19.92;4.13;;;18.60;99.90;;;;;;5035887;28;20037;-50
2023/09/28 10:20:02;;;;;;;19.90;4.30;;;18.60;99.90;;;;;;5036181;28;20064;-56
2023/09/28 10:22:29;;;;;;;18.52;4.45;;;18.60;99.90;;;;;;5036100;28;20046;-53
2023/09/28 10:24:56;;;;;;;21.50;5.32;;;18.60;99.90;;;;;;5035577;28;20049;-50
2023/09/28 10:27:23;;;;;;;22.17;4.65;;;18.60;99.90;;;;;;5035600;28;20049;-50
2023/09/28 10:29:50;;;;;;;18.73;4.28;;;18.50;99.90;;;;;;5035968;28;20496;-52
2023/09/28 10:32:17;;;;;;;23.30;4.82;;;18.50;99.90;;;;;;5035353;28;20041;-49
2023/09/28 10:34:46;;;;;;;16.27;4.13;;;18.50;99.90;;;;;;5035617;28;20051;-51
2023/09/28 10:37:18;;;;;;;16.92;4.47;;;18.50;99.90;;;;;;5035738;28;20073;-52
2023/09/28 10:39:45;;;;;;;16.90;5.07;;;18.50;99.90;;;;;;5035522;28;20049;-53
2023/09/28 10:42:11;;;;;;;15.73;4.53;;;18.60;99.90;;;;;;5035723;28;20518;-54
2023/09/28 10:44:38;;;;;;;17.15;4.35;;;18.70;99.90;;;;;;5035597;28;20063;-52
2023/09/28 10:47:05;;;;;;;24.13;4.93;;;18.80;99.90;;;;;;5035062;28;20068;-51
2023/09/28 10:49:32;;;;;;;15.88;4.45;;;18.90;99.90;;;;;;5034491;28;20044;-50
2023/09/28 10:51:59;;;;;;;16.65;4.43;;;19.00;99.90;;;;;;5034892;28;20523;-52
2023/09/28 10:54:29;;;;;;;17.35;4.32;;;19.10;99.90;;;;;;5035260;28;20056;-53
2023/09/28 10:56:56;;;;;;;18.55;4.07;;;19.10;99.90;;;;;;5032957;28;20025;-53
2023/09/28 10:59:24;;;;;;;20.73;4.57;;;19.10;99.90;;;;;;5035035;28;20041;-48
2023/09/28 11:01:51;;;;;;;17.70;4.32;;;19.00;99.90;;;;;;5034365;28;20072;-48
2023/09/28 11:04:17;;;;;;;14.98;4.25;;;19.00;99.90;;;;;;5035039;28;20045;-52
2023/09/28 11:06:53;;;;;;;15.50;4.18;;;19.00;99.90;;;;;;5032972;28;20037;-53
2023/09/28 11:09:21;;;;;;;17.75;4.40;;;19.00;99.90;;;;;;5033771;28;20033;-52
2023/09/28 11:11:49;;;;;;;20.88;4.43;;;19.10;99.90;;;;;;5033228;28;20370;-52
2023/09/28 11:14:16;;;;;;;18.63;3.97;;;19.00;99.90;;;;;;5030886;28;20119;-52
2023/09/28 11:16:43;;;;;;;16.60;4.40;;;19.10;99.90;;;;;;5033197;28;20041;-54
2023/09/28 11:19:10;;;;;;;18.52;4.18;;;19.20;99.90;;;;;;5034443;28;20049;-52
2023/09/28 11:21:37;;;;;;;17.05;4.78;;;19.20;99.90;;;;;;5030563;28;20120;-50
2023/09/28 11:24:04;;;;;;;18.60;4.35;;;19.20;99.90;;;;;;5034209;28;20049;-49
2023/09/28 11:26:32;;;;;;;16.73;4.53;;;19.20;99.90;;;;;;5033880;28;20043;-51
2023/09/28 11:28:59;;;;;;;17.73;4.72;;;19.30;99.90;;;;;;5033536;28;20040;-51
2023/09/28 11:31:27;;;;;;;19.55;4.30;;;19.20;99.90;;;;;;5032978;28;20514;-51
2023/09/28 11:33:54;;;;;;;16.17;4.57;;;19.30;99.90;;;;;;5033783;28;20034;-55
2023/09/28 11:36:21;;;;;;;20.90;4.85;;;19.30;99.90;;;;;;5033833;28;20041;-48
2023/09/28 11:38:48;;;;;;;21.13;5.07;;;19.40;99.90;;;;;;5033973;28;20046;-53
2023/09/28 11:41:15;;;;;;;20.60;4.78;;;19.40;99.90;;;;;;5033574;28;20518;-47
2023/09/28 11:43:42;;;;;;;17.95;4.88;;;19.40;99.90;;;;;;5033637;28;20091;-50
2023/09/28 11:46:09;;;;;;;21.17;4.80;;;19.30;99.90;;;;;;5033391;28;20065;-47
2023/09/28 11:48:36;;;;;;;17.98;5.30;;;19.30;99.90;;;;;;5032984;28;20064;-48
2023/09/28 11:51:04;;;;;;;14.85;4.75;;;19.20;99.90;;;;;;5033312;28;20119;-52
2023/09/28 11:53:30;;;;;;;18.48;4.70;;;19.30;99.90;;;;;;5033585;28;20040;-52
2023/09/28 11:55:57;;;;;;;19.65;5.43;;;19.30;99.90;;;;;;5033427;28;20040;-52
2023/09/28 11:58:25;;;;;;;18.67;5.25;;;19.30;99.90;;;;;;5032382;28;20044;-49
2023/09/28 12:00:52;;;;;;;16.10;4.35;;;19.20;99.90;;;;;;5030110;28;20042;-52
2023/09/28 12:03:19;;;;;;;17.83;5.20;;;19.20;99.90;;;;;;5032431;28;20042;-47
2023/09/28 12:05:47;;;;;;;20.80;5.35;;;19.10;99.90;;;;;;5032932;28;20037;-50
2023/09/28 12:08:14;;;;;;;20.65;5.32;;;19.10;99.90;;;;;;5032852;28;20393;-52
2023/09/28 12:10:41;;;;;;;17.50;4.90;;;19.10;99.90;;;;;;5032414;28;20041;-51
2023/09/28 12:13:08;;;;;;;15.93;4.80;;;19.00;99.90;;;;;;5032555;28;20117;-50
2023/09/28 12:15:37;;;;;;;16.80;4.50;;;19.10;99.90;;;;;;5032582;28;20041;-51
2023/09/28 12:18:04;;;;;;;19.30;5.13;;;19.10;99.90;;;;;;5033376;28;20038;-50
2023/09/28 12:20:31;;;;;;;20.23;4.90;;;19.20;99.90;;;;;;5032724;28;20053;-51
2023/09/28 12:22:58;;;;;;;16.67;4.80;;;19.30;99.90;;;;;;5032372;28;20511;-48
2023/09/28 12:25:33;;;;;;;25.60;5.03;;;19.30;99.90;;;;;;5032151;28;20056;-54
2023/09/28 12:28:00;;;;;;;18.02;4.43;;;19.40;99.90;;;;;;5033086;28;20045;-54
2023/09/28 12:30:28;;;;;;;22.52;5.10;;;19.40;99.90;;;;;;5032858;28;20434;-51
2023/09/28 12:32:57;;;;;;;20.52;5.35;;;19.40;99.90;;;;;;5028716;28;20477;-52
2023/09/28 12:35:24;;;;;;;17.05;4.55;;;19.40;99.90;;;;;;5032990;28;20056;-50
2023/09/28 12:37:51;;;;;;;19.73;5.15;;;19.40;99.90;;;;;;5032380;28;20044;-47
2023/09/28 12:40:18;;;;;;;16.80;4.97;;;19.40;99.90;;;;;;5032926;28;20037;-47